| time (UTC) | temp F | wind direction | speed knots | gust knots | rain 1hr in | rain 24hr in | rain mn in | humidity % | barometer mb |
| 20260506201436 | 64 | 269 | 3.5 | 7.8 | 0.00 | 0.17 | 0.17 | 89 | 1008.5 |
| 20260506200136 | 64 | 246 | 3.5 | 12.2 | 0.00 | 0.17 | 0.17 | 90 | 1008.7 |
| 20260506194836 | 64 | 242 | 4.3 | 7.8 | 0.00 | 0.17 | 0.17 | 89 | 1008.7 |
| 20260506193536 | 63 | 205 | 3.5 | 8.7 | 0.00 | 0.17 | 0.17 | 92 | 1008.9 |
| 20260506192236 | 63 | 255 | 3.5 | 9.6 | 0.00 | 0.17 | 0.17 | 94 | 1009.0 |
| 20260506190936 | 62 | 204 | 2.6 | 4.3 | 0.00 | 0.17 | 0.17 | 95 | 1009.0 |
| 20260506185636 | 61 | 246 | 2.6 | 6.1 | 0.00 | 0.17 | 0.17 | 97 | 1008.9 |
| 20260506184336 | 60 | 219 | 2.6 | 7.0 | 0.00 | 0.17 | 0.17 | 97 | 1009.0 |
| 20260506183036 | 59 | 212 | 3.5 | 8.7 | 0.00 | 0.17 | 0.17 | 97 | 1009.2 |
| 20260506181736 | 59 | 261 | 2.6 | 6.1 | 0.00 | 0.17 | 0.17 | 97 | 1009.4 |
| 20260506180436 | 59 | 283 | 3.5 | 8.7 | 0.00 | 0.17 | 0.17 | 96 | 1009.6 |
| 20260506175136 | 59 | 254 | 3.5 | 8.7 | 0.00 | 0.17 | 0.17 | 96 | 1009.6 |
| 20260506173836 | 59 | 271 | 3.5 | 7.8 | 0.00 | 0.17 | 0.17 | 96 | 1009.5 |
| 20260506172536 | 59 | 258 | 2.6 | 7.0 | 0.00 | 0.17 | 0.17 | 96 | 1009.4 |
| 20260506171236 | 58 | 217 | 3.5 | 7.0 | 0.01 | 0.17 | 0.17 | 96 | 1009.4 |
| 20260506165936 | 58 | 197 | 2.6 | 5.2 | 0.01 | 0.17 | 0.17 | 96 | 1009.5 |
| 20260506164636 | 59 | 198 | 2.6 | 4.3 | 0.02 | 0.17 | 0.17 | 96 | 1009.6 |
| 20260506163336 | 59 | 195 | 3.5 | 7.0 | 0.03 | 0.17 | 0.17 | 96 | 1009.7 |
| 20260506162036 | 59 | 198 | 2.6 | 5.2 | 0.03 | 0.16 | 0.16 | 96 | 1009.6 |
| 20260506160736 | 59 | 180 | 2.6 | 5.2 | 0.05 | 0.16 | 0.16 | 96 | 1009.2 |
| 20260506155510 | 59 | 200 | 2.6 | 4.3 | 0.08 | 0.15 | 0.15 | 96 | 1009.4 |
| 20260506155436 | 59 | 200 | 2.6 | 4.3 | 0.08 | 0.15 | 0.15 | 96 | 1009.4 |
| 20260506154136 | 59 | 243 | 2.6 | 5.2 | 0.10 | 0.15 | 0.15 | 96 | 1010.1 |
| 20260506152836 | 59 | 188 | 2.6 | 5.2 | 0.10 | 0.14 | 0.14 | 96 | 1010.3 |
| 20260506151536 | 59 | 205 | 2.6 | 6.1 | 0.10 | 0.13 | 0.13 | 95 | 1010.4 |
| 20260506150236 | 59 | 234 | 2.6 | 3.5 | 0.07 | 0.09 | 0.09 | 95 | 1010.5 |
| 20260506144936 | 59 | 191 | 2.6 | 4.3 | 0.05 | 0.06 | 0.06 | 95 | 1010.2 |
| 20260506143636 | 59 | 196 | 2.6 | 5.2 | 0.05 | 0.05 | 0.05 | 95 | 1010.2 |
| 20260506142336 | 59 | 249 | 1.7 | 4.3 | 0.04 | 0.04 | 0.04 | 94 | 1010.3 |
| 20260506141036 | 59 | 198 | 1.7 | 3.5 | 0.03 | 0.03 | 0.03 | 93 | 1010.4 |
| 20260506135736 | 59 | 202 | 1.7 | 5.2 | 0.02 | 0.02 | 0.02 | 93 | 1010.4 |
| 20260506134515 | 60 | 202 | 2.6 | 4.3 | 0.00 | 0.00 | 0.00 | 92 | 1010.3 |
| 20260506134436 | 60 | 202 | 2.6 | 4.3 | 0.00 | 0.00 | 0.00 | 92 | 1010.3 |
| 20260506133136 | 60 | 211 | 2.6 | 3.5 | 0.00 | 0.00 | 0.00 | 91 | 1010.4 |
| 20260506131836 | 60 | 232 | 2.6 | 4.3 | 0.00 | 0.00 | 0.00 | 91 | 1010.3 |
| 20260506130536 | 60 | 208 | 2.6 | 4.3 | 0.00 | 0.00 | 0.00 | 90 | 1010.6 |
| 20260506125236 | 60 | 196 | 2.6 | 5.2 | 0.00 | 0.00 | 0.00 | 90 | 1010.5 |
| 20260506123936 | 60 | 198 | 2.6 | 3.5 | 0.00 | 0.00 | 0.00 | 89 | 1010.6 |
| 20260506122636 | 61 | 189 | 3.5 | 5.2 | 0.00 | 0.00 | 0.00 | 88 | 1010.7 |
| 20260506121336 | 61 | 201 | 3.5 | 6.1 | 0.00 | 0.00 | 0.00 | 86 | 1010.5 |
| 20260506120036 | 62 | 204 | 3.5 | 5.2 | 0.00 | 0.00 | 0.00 | 84 | 1010.3 |
| 20260506114736 | 62 | 223 | 3.5 | 10.4 | 0.00 | 0.00 | 0.00 | 83 | 1010.1 |
| 20260506113436 | 62 | 234 | 3.5 | 7.0 | 0.00 | 0.00 | 0.00 | 83 | 1010.2 |
| 20260506112136 | 62 | 205 | 3.5 | 6.1 | 0.00 | 0.00 | 0.00 | 83 | 1010.0 |
| 20260506110836 | 62 | 192 | 3.5 | 6.1 | 0.00 | 0.00 | 0.00 | 83 | 1009.8 |
| 20260506105536 | 62 | 208 | 3.5 | 5.2 | 0.00 | 0.00 | 0.00 | 83 | 1009.8 |
| 20260506104236 | 62 | 200 | 3.5 | 7.0 | 0.00 | 0.00 | 0.00 | 83 | 1009.8 |
| 20260506102936 | 62 | 187 | 3.5 | 7.0 | 0.00 | 0.00 | 0.00 | 82 | 1009.7 |
| 20260506101637 | 62 | 199 | 3.5 | 6.1 | 0.00 | 0.00 | 0.00 | 82 | 1009.6 |
| 20260506100337 | 63 | 189 | 3.5 | 6.1 | 0.00 | 0.00 | 0.00 | 81 | 1009.5 |
| 20260506095037 | 63 | 211 | 3.5 | 5.2 | 0.00 | 0.00 | 0.00 | 81 | 1009.5 |
| 20260506093737 | 63 | 192 | 3.5 | 5.2 | 0.00 | 0.00 | 0.00 | 80 | 1009.6 |
| 20260506092437 | 63 | 200 | 3.5 | 7.0 | 0.00 | 0.00 | 0.00 | 80 | 1009.7 |
| 20260506091137 | 64 | 194 | 3.5 | 4.3 | 0.00 | 0.00 | 0.00 | 79 | 1009.8 |
| 20260506085837 | 64 | 190 | 3.5 | 6.1 | 0.00 | 0.00 | 0.00 | 79 | 1009.9 |
| 20260506084537 | 64 | 196 | 3.5 | 6.1 | 0.00 | 0.00 | 0.00 | 78 | 1009.9 |
| 20260506083237 | 64 | 186 | 3.5 | 4.3 | 0.00 | 0.00 | 0.00 | 77 | 1010.1 |
| 20260506081937 | 64 | 194 | 2.6 | 4.3 | 0.00 | 0.00 | 0.00 | 76 | 1010.1 |
| 20260506080637 | 65 | 196 | 3.5 | 4.3 | 0.00 | 0.00 | 0.00 | 75 | 1010.1 |
| 20260506072737 | 65 | 206 | 2.6 | 5.2 | 0.00 | 0.00 | 0.00 | 73 | 1010.2 |
| 20260506071437 | 65 | 190 | 2.6 | 5.2 | 0.00 | 0.00 | 0.00 | 73 | 1010.4 |
| 20260506070137 | 65 | 188 | 2.6 | 3.5 | 0.00 | 0.00 | 0.00 | 72 | 1010.6 |
| 20260506062237 | 66 | 203 | 2.6 | 5.2 | 0.00 | 0.00 | 0.00 | 69 | 1011.0 |
| 20260506060937 | 66 | 197 | 2.6 | 4.3 | 0.00 | 0.00 | 0.00 | 69 | 1011.1 |
| 20260506050437 | 66 | 267 | 2.6 | 5.2 | 0.00 | 0.00 | 0.00 | 66 | 1011.4 |
| 20260506043837 | 66 | 248 | 2.6 | 3.5 | 0.00 | 0.00 | 0.00 | 66 | 1011.4 |
| 20260506042537 | 66 | 208 | 1.7 | 4.3 | 0.00 | 0.00 | 0.00 | 65 | 1011.5 |
| 20260506041237 | 66 | 194 | 2.6 | 3.5 | 0.00 | 0.00 | 0.00 | 66 | 1011.5 |
| 20260506035937 | 66 | 221 | 2.6 | 5.2 | 0.00 | 0.00 | 0.00 | 65 | 1011.6 |
| 20260506034637 | 66 | 215 | 2.6 | 3.5 | 0.00 | 0.00 | 0.00 | 66 | 1011.6 |
| 20260506033337 | 66 | 201 | 2.6 | 4.3 | 0.00 | 0.00 | 0.00 | 65 | 1011.5 |
| 20260506032037 | 66 | 209 | 1.7 | 4.3 | 0.00 | 0.00 | 0.00 | 65 | 1011.6 |
| 20260506030737 | 67 | 207 | 1.7 | 3.5 | 0.00 | 0.00 | 0.00 | 63 | 1011.4 |
| 20260506025437 | 67 | 242 | 1.7 | 2.6 | 0.00 | 0.00 | 0.00 | 63 | 1011.6 |
| 20260506024137 | 67 | 212 | 1.7 | 2.6 | 0.00 | 0.00 | 0.00 | 62 | 1011.5 |
| 20260506022837 | 68 | 207 | 1.7 | 3.5 | 0.00 | 0.00 | 0.00 | 62 | 1011.5 |
| 20260506021537 | 68 | 207 | 1.7 | 4.3 | 0.00 | 0.00 | 0.00 | 62 | 1011.7 |
| 20260506020237 | 68 | 216 | 1.7 | 2.6 | 0.00 | 0.00 | 0.00 | 61 | 1011.7 |
| 20260506014937 | 69 | 216 | 1.7 | 3.5 | 0.00 | 0.00 | 0.00 | 60 | 1011.6 |
| 20260506013637 | 69 | 216 | 1.7 | 2.6 | 0.00 | 0.00 | 0.00 | 59 | 1011.2 |
| 20260506012409 | 69 | 216 | 1.7 | 3.5 | 0.00 | 0.00 | 0.00 | 58 | 1011.4 |
| 20260506012337 | 69 | 216 | 1.7 | 3.5 | 0.00 | 0.00 | 0.00 | 58 | 1011.4 |
| 20260506011037 | 70 | 215 | 1.7 | 3.5 | 0.00 | 0.00 | 0.00 | 57 | 1011.1 |
| 20260506005737 | 70 | 244 | 1.7 | 3.5 | 0.00 | 0.00 | 0.00 | 56 | 1011.0 |
| 20260506004437 | 70 | 218 | 0.9 | 2.6 | 0.00 | 0.00 | 0.00 | 55 | 1010.9 |
| 20260506003137 | 71 | 230 | 0.9 | 1.7 | 0.00 | 0.00 | 0.00 | 54 | 1010.8 |
| 20260506001837 | 71 | 230 | 0.9 | 1.7 | 0.00 | 0.00 | 0.00 | 53 | 1010.8 |
| 20260506000538 | 72 | 230 | 1.7 | 2.6 | 0.00 | 0.00 | 0.00 | 52 | 1010.6 |
| 20260505235237 | 73 | 264 | 1.7 | 2.6 | 0.00 | 0.00 | 0.00 | 52 | 1010.4 |
| 20260505233938 | 73 | 264 | 2.6 | 6.1 | 0.00 | 0.00 | 0.00 | 51 | 1010.4 |
| 20260505232638 | 74 | 269 | 1.7 | 5.2 | 0.00 | 0.00 | 0.00 | 51 | 1010.1 |
| 20260505231338 | 74 | 211 | 1.7 | 2.6 | 0.00 | 0.00 | 0.00 | 49 | 1010.1 |
| 20260505230038 | 75 | 209 | 1.7 | 4.3 | 0.00 | 0.00 | 0.00 | 47 | 1010.0 |
| 20260505224738 | 76 | 188 | 2.6 | 6.1 | 0.00 | 0.00 | 0.00 | 45 | 1010.1 |
| 20260505223438 | 76 | 178 | 2.6 | 5.2 | 0.00 | 0.00 | 0.00 | 46 | 1010.0 |
| 20260505222138 | 76 | 208 | 2.6 | 4.3 | 0.00 | 0.00 | 0.00 | 45 | 1010.1 |
| 20260505220838 | 77 | 272 | 3.5 | 7.8 | 0.00 | 0.00 | 0.00 | 46 | 1010.2 |
| 20260505215538 | 77 | 248 | 0.9 | 11.3 | 0.00 | 0.00 | 0.00 | 44 | 1010.1 |
| 20260505214238 | 78 | 194 | 3.5 | 7.8 | 0.00 | 0.00 | 0.00 | 42 | 1009.9 |
| 20260505212938 | 78 | 232 | 4.3 | 11.3 | 0.00 | 0.00 | 0.00 | 43 | 1009.9 |
| 20260505211638 | 78 | 255 | 3.5 | 8.7 | 0.00 | 0.00 | 0.00 | 42 | 1009.9 |
| 20260505210338 | 78 | 190 | 4.3 | 7.0 | 0.00 | 0.00 | 0.00 | 42 | 1009.8 |
| 20260505205038 | 78 | 198 | 3.5 | 7.8 | 0.00 | 0.00 | 0.00 | 43 | 1010.0 |
| 20260505203738 | 79 | 238 | 3.5 | 10.4 | 0.00 | 0.00 | 0.00 | 43 | 1009.9 |
| 20260505202438 | 79 | 238 | 4.3 | 9.6 | 0.00 | 0.00 | 0.00 | 42 | 1010.0 |